Terminal Aerodrome Forecast
Issued by NWS Sterling, VA

Current Version | Previous Version | Graphics & Text | Print | Product List | Glossary On
Versions: 1 2 3 4 5 6 7 8 9 10 11 12 13 14 15 16 17 18 19 20 21 22 23
475
FTUS41 KLWX 211730
TAFDCA
TAF
KDCA 211730Z 2118/2218 27007KT P6SM VCTS SCT050CB BKN200
     FM220000 31005KT P6SM SCT050 BKN200
     FM221400 35008KT P6SM BKN030 OVC090=

USA.gov is the U.S. government's official web portal to all federal, state and local government web resources and services.